Time;durP1;ratioP1;P1;durP2;ratioP2;P2;SDS_P1;SDS_P2;PMS_P1;PMS_P2;Temp;Humidity;BMP_temperature;BMP_pressure;BME280_temperature;BME280_humidity;BME280_pressure;Samples;Min_cycle;Max_cycle;Signal;HPM_P1;HPM_P2
2022/05/12 00:02:03;;;;;;;6.83;3.47;;;;;;;;;;4969229;28;20174;-41
2022/05/12 00:04:30;;;;;;;8.80;3.77;;;;;;;;;;4970793;28;20285;-42
2022/05/12 00:06:57;;;;;;;6.23;3.60;;;;;;;;;;4965069;28;20965;-42
2022/05/12 00:09:23;;;;;;;6.80;3.63;;;;;;;;;;4966078;28;20181;-41
2022/05/12 00:11:49;;;;;;;8.73;3.63;;;;;;;;;;4965756;28;20170;-42
2022/05/12 00:14:16;;;;;;;8.73;3.90;;;;;;;;;;4969930;28;20174;-42
2022/05/12 00:16:42;;;;;;;7.73;3.40;;;;;;;;;;4966229;28;20189;-42
2022/05/12 00:19:08;;;;;;;8.77;3.87;;;;;;;;;;4968046;28;20178;-41
2022/05/12 00:21:34;;;;;;;9.50;3.90;;;;;;;;;;4968550;28;20178;-42
2022/05/12 00:24:00;;;;;;;6.13;3.70;;;;;;;;;;4964324;28;20178;-42
2022/05/12 00:26:27;;;;;;;6.67;3.73;;;;;;;;;;4965597;28;20277;-42
2022/05/12 00:28:53;;;;;;;8.47;4.00;;;;;;;;;;4967512;28;21000;-42
2022/05/12 00:31:20;;;;;;;7.73;4.23;;;;;;;;;;4969226;28;20181;-41
2022/05/12 00:33:46;;;;;;;7.47;4.00;;;;;;;;;;4967541;28;20260;-42
2022/05/12 00:36:13;;;;;;;7.63;4.40;;;;;;;;;;4943261;28;20185;-42
2022/05/12 00:38:39;;;;;;;6.40;3.60;;;;;;;;;;4970017;28;20189;-41
2022/05/12 00:41:06;;;;;;;10.43;4.03;;;;;;;;;;4968028;28;21168;-42
2022/05/12 00:43:35;;;;;;;7.83;4.03;;;;;;;;;;4965913;28;20193;-42
2022/05/12 00:46:01;;;;;;;7.10;4.03;;;;;;;;;;4968663;28;20210;-42
2022/05/12 00:48:28;;;;;;;7.70;3.87;;;;;;;;;;4967615;28;20181;-42
2022/05/12 00:50:54;;;;;;;9.17;3.83;;;;;;;;;;4972177;28;20177;-42
2022/05/12 00:53:20;;;;;;;9.10;4.07;;;;;;;;;;4967730;28;20171;-42
2022/05/12 00:55:46;;;;;;;8.03;3.93;;;;;;;;;;4962261;28;21313;-41
2022/05/12 00:58:15;;;;;;;8.77;4.23;;;;;;;;;;4965780;28;20856;-42
2022/05/12 01:00:41;;;;;;;7.03;3.70;;;;;;;;;;4960603;28;20325;-42
2022/05/12 01:03:10;;;;;;;7.80;4.10;;;;;;;;;;4963729;28;20177;-42
2022/05/12 01:05:36;;;;;;;7.13;4.30;;;;;;;;;;4964405;28;20178;-42
2022/05/12 01:08:03;;;;;;;8.03;4.37;;;;;;;;;;4968425;28;20189;-43
2022/05/12 01:10:29;;;;;;;9.53;4.50;;;;;;;;;;4964501;28;21034;-43
2022/05/12 01:12:56;;;;;;;7.77;4.60;;;;;;;;;;4962292;28;20182;-43
2022/05/12 01:15:24;;;;;;;6.87;4.07;;;;;;;;;;4964263;28;20187;-43
2022/05/12 01:17:50;;;;;;;7.57;4.13;;;;;;;;;;4963442;28;20178;-42
2022/05/12 01:20:17;;;;;;;8.73;4.70;;;;;;;;;;4962549;28;20182;-42
2022/05/12 01:22:52;;;;;;;6.70;4.10;;;;;;;;;;4964749;28;20904;-41
2022/05/12 01:25:19;;;;;;;8.57;3.60;;;;;;;;;;4964602;28;20182;-43
2022/05/12 01:27:46;;;;;;;5.83;4.13;;;;;;;;;;4966520;28;20991;-43
2022/05/12 01:30:13;;;;;;;4.53;3.70;;;;;;;;;;4964454;28;20198;-43
2022/05/12 01:32:40;;;;;;;7.13;3.80;;;;;;;;;;4960098;28;20285;-43
2022/05/12 01:35:07;;;;;;;6.30;3.90;;;;;;;;;;4958171;28;20171;-43
2022/05/12 01:37:38;;;;;;;10.10;4.40;;;;;;;;;;4962064;28;20178;-43
2022/05/12 01:40:05;;;;;;;5.87;3.77;;;;;;;;;;4956424;28;20170;-43
2022/05/12 01:42:31;;;;;;;9.17;3.97;;;;;;;;;;4960215;28;20679;-43
2022/05/12 01:44:57;;;;;;;9.43;3.80;;;;;;;;;;4961122;28;20181;-42
2022/05/12 01:47:23;;;;;;;9.17;3.90;;;;;;;;;;4960544;28;20705;-42
2022/05/12 01:49:50;;;;;;;7.13;4.07;;;;;;;;;;4957217;28;20170;-42
2022/05/12 01:52:16;;;;;;;7.60;4.30;;;;;;;;;;4959779;28;20289;-42
2022/05/12 01:54:42;;;;;;;5.30;3.93;;;;;;;;;;4957768;28;20575;-43
2022/05/12 01:57:08;;;;;;;6.57;4.33;;;;;;;;;;4960443;28;20178;-43
2022/05/12 01:59:35;;;;;;;6.73;4.10;;;;;;;;;;4957393;28;20247;-43
2022/05/12 02:02:03;;;;;;;6.53;4.20;;;;;;;;;;4958894;28;20210;-43
2022/05/12 02:04:29;;;;;;;7.90;4.70;;;;;;;;;;4956280;28;20250;-43
2022/05/12 02:06:55;;;;;;;9.67;4.77;;;;;;;;;;4962208;28;20198;-42
2022/05/12 02:09:21;;;;;;;7.83;4.83;;;;;;;;;;4961465;28;20174;-43
2022/05/12 02:11:48;;;;;;;6.80;4.30;;;;;;;;;;4955643;28;20449;-43
2022/05/12 02:14:14;;;;;;;10.07;5.30;;;;;;;;;;4963292;28;20175;-43
2022/05/12 02:16:40;;;;;;;11.47;5.93;;;;;;;;;;4946423;28;20246;-43
2022/05/12 02:19:07;;;;;;;9.17;6.17;;;;;;;;;;4956508;28;20178;-43
2022/05/12 02:21:34;;;;;;;13.13;6.80;;;;;;;;;;4957672;28;20444;-43
2022/05/12 02:24:00;;;;;;;8.03;5.60;;;;;;;;;;4959396;28;20550;-43
2022/05/12 02:26:26;;;;;;;10.00;6.63;;;;;;;;;;4959371;28;20292;-43
2022/05/12 02:28:52;;;;;;;11.57;7.70;;;;;;;;;;4954694;28;20166;-42
2022/05/12 02:31:19;;;;;;;12.00;6.33;;;;;;;;;;4953323;28;20205;-43
2022/05/12 02:33:45;;;;;;;9.80;6.10;;;;;;;;;;4961329;28;20177;-43
2022/05/12 02:36:11;;;;;;;9.37;6.93;;;;;;;;;;4955643;28;20193;-42
2022/05/12 02:38:37;;;;;;;11.30;7.03;;;;;;;;;;4951609;28;20299;-43
2022/05/12 02:41:03;;;;;;;11.13;7.30;;;;;;;;;;4962836;28;20835;-43
2022/05/12 02:43:31;;;;;;;14.63;6.23;;;;;;;;;;4957498;28;20775;-43
2022/05/12 02:45:59;;;;;;;11.20;7.37;;;;;;;;;;4953961;28;20305;-43
2022/05/12 02:48:29;;;;;;;9.23;6.00;;;;;;;;;;4960405;28;20170;-43
2022/05/12 02:50:57;;;;;;;12.87;6.07;;;;;;;;;;4958611;28;20175;-43
2022/05/12 02:53:24;;;;;;;11.07;6.90;;;;;;;;;;4955987;28;20244;-43
2022/05/12 02:55:50;;;;;;;11.27;7.10;;;;;;;;;;4960820;28;20282;-43
2022/05/12 02:58:16;;;;;;;9.93;6.30;;;;;;;;;;4957560;28;20170;-43
2022/05/12 03:00:42;;;;;;;11.87;7.40;;;;;;;;;;4957467;28;20177;-42
2022/05/12 03:03:08;;;;;;;11.73;7.03;;;;;;;;;;4955748;28;20697;-43
2022/05/12 03:05:35;;;;;;;10.07;6.80;;;;;;;;;;4958160;28;20229;-42
2022/05/12 03:08:01;;;;;;;10.33;7.13;;;;;;;;;;4961592;28;20808;-43
2022/05/12 03:10:28;;;;;;;11.70;7.40;;;;;;;;;;4961286;28;20271;-43
2022/05/12 03:12:54;;;;;;;11.30;6.93;;;;;;;;;;4957414;28;20206;-42
2022/05/12 03:15:20;;;;;;;12.67;7.17;;;;;;;;;;4962640;28;20174;-43
2022/05/12 03:17:46;;;;;;;11.20;6.77;;;;;;;;;;4957138;28;20178;-43
2022/05/12 03:20:15;;;;;;;12.40;7.40;;;;;;;;;;4956506;28;20178;-43
2022/05/12 03:22:41;;;;;;;10.67;6.43;;;;;;;;;;4959069;28;20313;-43
2022/05/12 03:25:09;;;;;;;10.80;6.77;;;;;;;;;;4959470;28;20174;-43
2022/05/12 03:27:35;;;;;;;11.97;7.10;;;;;;;;;;4956218;28;20483;-43
2022/05/12 03:30:01;;;;;;;11.23;6.80;;;;;;;;;;4961127;28;20178;-43
2022/05/12 03:32:28;;;;;;;10.00;6.47;;;;;;;;;;4960366;28;20166;-43
2022/05/12 03:34:54;;;;;;;12.07;6.83;;;;;;;;;;4959285;28;20182;-42
2022/05/12 03:37:20;;;;;;;8.53;6.17;;;;;;;;;;4962142;28;20878;-43
2022/05/12 03:39:46;;;;;;;7.97;6.33;;;;;;;;;;4958942;28;20178;-43
2022/05/12 03:42:14;;;;;;;9.33;6.63;;;;;;;;;;4959025;28;20252;-43
2022/05/12 03:44:46;;;;;;;9.37;6.77;;;;;;;;;;4961471;28;20495;-43
2022/05/12 03:47:14;;;;;;;9.53;6.27;;;;;;;;;;4958033;28;20777;-44
2022/05/12 03:49:40;;;;;;;11.87;6.53;;;;;;;;;;4961726;28;20330;-43
2022/05/12 03:52:06;;;;;;;10.47;6.70;;;;;;;;;;4957885;28;20658;-43
2022/05/12 03:54:32;;;;;;;7.50;5.30;;;;;;;;;;4962167;28;20170;-44
2022/05/12 03:56:59;;;;;;;9.57;5.90;;;;;;;;;;4957841;28;20174;-43
2022/05/12 03:59:25;;;;;;;10.10;6.00;;;;;;;;;;4958095;28;20897;-44
2022/05/12 04:01:51;;;;;;;7.27;6.10;;;;;;;;;;4959150;28;20186;-44
2022/05/12 04:04:17;;;;;;;10.77;7.03;;;;;;;;;;4960621;28;20297;-44
2022/05/12 04:06:43;;;;;;;9.30;7.20;;;;;;;;;;4959035;28;20197;-43
2022/05/12 04:09:10;;;;;;;12.33;7.33;;;;;;;;;;4958459;28;20285;-44
2022/05/12 04:11:36;;;;;;;14.33;8.93;;;;;;;;;;4958219;28;20429;-43
2022/05/12 04:14:04;;;;;;;18.80;9.57;;;;;;;;;;4962434;28;20645;-43
2022/05/12 04:16:32;;;;;;;15.00;9.53;;;;;;;;;;4960831;28;20178;-44
2022/05/12 04:18:58;;;;;;;14.73;9.50;;;;;;;;;;4931780;28;20289;-43
2022/05/12 04:21:26;;;;;;;18.83;10.33;;;;;;;;;;4957212;28;20178;-43
2022/05/12 04:23:52;;;;;;;17.33;10.63;;;;;;;;;;4954766;28;21116;-44
2022/05/12 04:26:18;;;;;;;17.03;11.50;;;;;;;;;;4955497;28;20924;-43
2022/05/12 04:28:45;;;;;;;20.23;11.37;;;;;;;;;;4957635;28;20182;-43
2022/05/12 04:31:11;;;;;;;15.77;11.30;;;;;;;;;;4951735;28;20543;-43
2022/05/12 04:36:22;;;;;;;16.60;10.57;;;;;;;;;;4965744;28;20189;-43
2022/05/12 04:38:48;;;;;;;18.27;11.00;;;;;;;;;;4960135;28;20262;-44
2022/05/12 04:41:16;;;;;;;15.07;10.17;;;;;;;;;;4960908;28;20185;-44
2022/05/12 04:43:42;;;;;;;13.70;9.30;;;;;;;;;;4961600;28;20490;-43
2022/05/12 04:46:08;;;;;;;13.77;10.50;;;;;;;;;;4960154;28;20477;-44
2022/05/12 04:48:34;;;;;;;16.87;9.60;;;;;;;;;;4957973;28;20186;-44
2022/05/12 04:51:00;;;;;;;13.07;9.13;;;;;;;;;;4961905;28;20270;-43
2022/05/12 04:53:27;;;;;;;13.43;8.27;;;;;;;;;;4959521;28;20170;-44
2022/05/12 04:55:53;;;;;;;12.63;9.20;;;;;;;;;;4961477;28;20181;-44
2022/05/12 04:58:19;;;;;;;11.93;8.33;;;;;;;;;;4956854;28;20209;-43
2022/05/12 05:00:45;;;;;;;14.83;8.03;;;;;;;;;;4958135;28;20178;-44
2022/05/12 05:03:12;;;;;;;16.43;7.63;;;;;;;;;;4965084;28;20189;-43
2022/05/12 05:05:38;;;;;;;14.17;8.33;;;;;;;;;;4962278;28;20259;-44
2022/05/12 05:08:05;;;;;;;15.50;8.57;;;;;;;;;;4962845;28;20198;-44
2022/05/12 05:10:32;;;;;;;17.07;8.20;;;;;;;;;;4962322;28;20182;-44
2022/05/12 05:12:59;;;;;;;11.50;7.17;;;;;;;;;;4965670;28;20260;-43
2022/05/12 05:15:25;;;;;;;13.30;7.40;;;;;;;;;;4962257;28;20183;-43
2022/05/12 05:17:52;;;;;;;12.93;7.83;;;;;;;;;;4962067;28;20189;-44
2022/05/12 05:20:20;;;;;;;15.40;8.63;;;;;;;;;;4957629;28;20186;-42
2022/05/12 05:22:47;;;;;;;14.00;7.80;;;;;;;;;;4958404;28;20277;-44
2022/05/12 05:25:13;;;;;;;13.53;7.70;;;;;;;;;;4962276;28;20182;-44
2022/05/12 05:27:39;;;;;;;14.93;7.47;;;;;;;;;;4959669;28;20210;-44
2022/05/12 05:30:07;;;;;;;13.37;7.50;;;;;;;;;;4962255;28;20185;-44
2022/05/12 05:32:33;;;;;;;14.73;6.70;;;;;;;;;;4964824;28;20209;-43
2022/05/12 05:34:59;;;;;;;10.03;5.93;;;;;;;;;;4965526;28;20971;-44
2022/05/12 05:37:26;;;;;;;8.73;5.83;;;;;;;;;;4963379;28;20189;-44
2022/05/12 05:39:52;;;;;;;9.73;5.83;;;;;;;;;;4958460;28;20995;-44
2022/05/12 05:42:19;;;;;;;13.67;6.20;;;;;;;;;;4964600;28;20201;-44
2022/05/12 05:44:45;;;;;;;12.00;6.37;;;;;;;;;;4962059;28;21033;-43
2022/05/12 05:47:11;;;;;;;12.40;5.73;;;;;;;;;;4961526;28;21056;-43
2022/05/12 05:49:38;;;;;;;11.87;5.63;;;;;;;;;;4964692;28;20295;-44
2022/05/12 05:54:49;;;;;;;9.10;5.40;;;;;;;;;;4963269;28;21089;-44
2022/05/12 05:57:21;;;;;;;13.17;5.33;;;;;;;;;;4941008;28;20186;-44
2022/05/12 05:59:48;;;;;;;9.30;4.97;;;;;;;;;;4967167;28;20186;-44
2022/05/12 06:02:14;;;;;;;8.30;5.40;;;;;;;;;;4965922;28;20178;-43
2022/05/12 06:04:40;;;;;;;8.13;5.17;;;;;;;;;;4965050;28;20357;-44
2022/05/12 06:07:06;;;;;;;8.37;4.80;;;;;;;;;;4963790;28;20191;-44
2022/05/12 06:09:32;;;;;;;8.87;5.23;;;;;;;;;;4966651;28;20174;-44
2022/05/12 06:11:58;;;;;;;8.60;4.60;;;;;;;;;;4966926;28;20210;-44
2022/05/12 06:14:26;;;;;;;10.40;4.63;;;;;;;;;;4962180;28;20191;-44
2022/05/12 06:16:52;;;;;;;10.57;4.93;;;;;;;;;;4962978;28;20189;-44
2022/05/12 06:19:19;;;;;;;9.27;4.37;;;;;;;;;;4965257;28;20178;-43
2022/05/12 06:21:45;;;;;;;10.83;4.20;;;;;;;;;;4965739;28;20889;-44
2022/05/12 06:24:11;;;;;;;10.23;4.33;;;;;;;;;;4968553;28;20973;-44
2022/05/12 06:26:37;;;;;;;9.23;4.10;;;;;;;;;;4962578;28;20285;-44
2022/05/12 06:29:03;;;;;;;10.23;4.73;;;;;;;;;;4962489;28;20189;-43
2022/05/12 06:31:30;;;;;;;10.53;5.47;;;;;;;;;;4963575;28;20220;-44
2022/05/12 06:33:56;;;;;;;8.43;5.27;;;;;;;;;;4963120;28;20193;-44
2022/05/12 06:36:22;;;;;;;10.47;5.43;;;;;;;;;;4959067;28;20181;-44
2022/05/12 06:38:49;;;;;;;10.40;6.10;;;;;;;;;;4962988;28;20182;-44
2022/05/12 06:41:15;;;;;;;7.23;5.40;;;;;;;;;;4962905;28;20185;-44
2022/05/12 06:43:45;;;;;;;8.73;5.30;;;;;;;;;;4964429;28;20218;-43
2022/05/12 06:46:12;;;;;;;11.40;4.50;;;;;;;;;;4961443;28;20202;-43
2022/05/12 06:48:38;;;;;;;8.77;5.07;;;;;;;;;;4961281;28;20182;-44
2022/05/12 06:51:05;;;;;;;10.00;5.03;;;;;;;;;;4961668;28;20609;-44
2022/05/12 06:53:31;;;;;;;7.10;5.23;;;;;;;;;;4958938;28;20564;-44
2022/05/12 06:55:57;;;;;;;13.63;6.03;;;;;;;;;;4959946;28;20170;-44
2022/05/12 06:58:23;;;;;;;9.50;5.23;;;;;;;;;;4961245;28;20273;-43
2022/05/12 07:00:49;;;;;;;8.23;4.83;;;;;;;;;;4957086;28;20625;-44
2022/05/12 07:03:16;;;;;;;10.60;5.60;;;;;;;;;;4957381;28;20178;-44
2022/05/12 07:05:44;;;;;;;8.43;5.50;;;;;;;;;;4961354;28;20245;-44
2022/05/12 07:08:11;;;;;;;9.53;5.87;;;;;;;;;;4953544;28;20209;-44
2022/05/12 07:10:37;;;;;;;10.00;5.60;;;;;;;;;;4960328;28;20174;-44
2022/05/12 07:13:03;;;;;;;8.57;5.70;;;;;;;;;;4961791;28;20727;-41
2022/05/12 07:15:29;;;;;;;12.83;6.00;;;;;;;;;;4951584;28;20185;-44
2022/05/12 07:17:56;;;;;;;7.57;5.50;;;;;;;;;;4950832;28;20190;-44
2022/05/12 07:28:39;;;;;;;11.03;5.93;;;;;;;;;;4962135;28;20303;-44
2022/05/12 07:31:06;;;;;;;10.60;5.47;;;;;;;;;;4956602;28;20547;-44
2022/05/12 07:33:34;;;;;;;9.47;5.40;;;;;;;;;;4961877;28;20739;-43
2022/05/12 07:36:01;;;;;;;11.03;6.00;;;;;;;;;;4962190;28;20557;-43
2022/05/12 07:38:27;;;;;;;9.93;5.63;;;;;;;;;;4959014;28;20680;-42
2022/05/12 07:40:53;;;;;;;11.03;4.93;;;;;;;;;;4957924;28;20189;-43
2022/05/12 07:43:20;;;;;;;9.50;5.43;;;;;;;;;;4961107;28;20249;-42
2022/05/12 07:45:46;;;;;;;9.37;5.37;;;;;;;;;;4953080;28;20186;-44
2022/05/12 07:48:13;;;;;;;9.60;5.30;;;;;;;;;;4956955;28;20264;-43
2022/05/12 07:50:39;;;;;;;10.70;5.83;;;;;;;;;;4956891;28;20544;-44
2022/05/12 07:53:06;;;;;;;11.57;6.33;;;;;;;;;;4955253;28;20678;-44
2022/05/12 07:55:32;;;;;;;11.40;6.40;;;;;;;;;;4957043;28;20646;-43
2022/05/12 07:57:59;;;;;;;9.27;4.90;;;;;;;;;;4961795;28;20272;-44
2022/05/12 08:00:25;;;;;;;11.63;5.80;;;;;;;;;;4956862;28;20190;-44
2022/05/12 08:02:51;;;;;;;10.07;5.33;;;;;;;;;;4958849;28;20273;-44
2022/05/12 08:05:18;;;;;;;9.60;5.37;;;;;;;;;;4959788;28;20182;-43
2022/05/12 08:07:47;;;;;;;10.33;6.20;;;;;;;;;;4958941;28;20917;-44
2022/05/12 08:10:13;;;;;;;10.87;5.57;;;;;;;;;;4940139;28;20213;-44
2022/05/12 08:12:39;;;;;;;8.07;5.10;;;;;;;;;;4965058;28;20603;-44
2022/05/12 08:15:06;;;;;;;9.97;5.00;;;;;;;;;;4959685;28;20618;-44
2022/05/12 08:17:32;;;;;;;10.43;5.70;;;;;;;;;;4962267;28;20760;-44
2022/05/12 08:19:59;;;;;;;6.80;4.50;;;;;;;;;;4962143;28;20190;-44
2022/05/12 08:22:25;;;;;;;12.13;6.23;;;;;;;;;;4966349;28;20335;-43
2022/05/12 08:24:51;;;;;;;10.07;4.80;;;;;;;;;;4962992;28;20194;-44
2022/05/12 08:27:18;;;;;;;8.43;4.47;;;;;;;;;;4958390;28;20720;-43
2022/05/12 08:29:44;;;;;;;11.87;6.13;;;;;;;;;;4958955;28;20178;-44
2022/05/12 08:32:10;;;;;;;9.20;6.13;;;;;;;;;;4961177;28;20537;-44
2022/05/12 08:34:36;;;;;;;9.73;5.73;;;;;;;;;;4966225;28;20260;-44
2022/05/12 08:37:03;;;;;;;8.27;5.20;;;;;;;;;;4963402;28;20264;-44
2022/05/12 08:39:29;;;;;;;8.67;5.00;;;;;;;;;;4960589;28;20929;-43
2022/05/12 08:42:27;;;;;;;13.30;5.70;;;;;;;;;;4962793;28;20186;-44
2022/05/12 08:44:55;;;;;;;15.13;6.57;;;;;;;;;;4924311;28;20198;-44
2022/05/12 08:47:26;;;;;;;8.47;5.27;;;;;;;;;;4962432;28;20329;-44
2022/05/12 08:49:52;;;;;;;10.57;4.83;;;;;;;;;;4961981;28;20729;-44
2022/05/12 08:52:23;;;;;;;12.80;5.30;;;;;;;;;;4961624;28;20189;-43
2022/05/12 08:54:52;;;;;;;10.93;5.50;;;;;;;;;;4964549;28;20190;-44
2022/05/12 08:57:27;;;;;;;10.00;4.83;;;;;;;;;;4960043;28;20190;-44
2022/05/12 08:59:53;;;;;;;8.80;4.90;;;;;;;;;;4964116;28;20468;-44
2022/05/12 09:02:19;;;;;;;8.97;5.37;;;;;;;;;;4950569;28;20178;-44
2022/05/12 09:05:00;;;;;;;8.40;5.00;;;;;;;;;;4965465;28;20202;-44
2022/05/12 09:07:46;;;;;;;12.87;5.67;;;;;;;;;;4961463;28;20202;-44
2022/05/12 09:10:35;;;;;;;8.07;5.20;;;;;;;;;;4916969;28;20653;-44
2022/05/12 09:13:24;;;;;;;11.27;5.37;;;;;;;;;;4963596;28;20537;-44
2022/05/12 09:16:06;;;;;;;11.63;5.43;;;;;;;;;;4963413;28;20197;-45
2022/05/12 09:18:34;;;;;;;12.63;5.20;;;;;;;;;;4960631;28;21947;-43
2022/05/12 09:21:06;;;;;;;10.13;5.97;;;;;;;;;;4958415;28;20918;-44
2022/05/12 09:23:32;;;;;;;8.40;4.80;;;;;;;;;;4961160;28;20189;-44
2022/05/12 09:25:59;;;;;;;8.50;4.43;;;;;;;;;;4966796;28;20632;-44
2022/05/12 09:28:33;;;;;;;10.03;5.43;;;;;;;;;;4963042;28;20183;-45
2022/05/12 09:31:15;;;;;;;11.37;5.67;;;;;;;;;;4960814;28;20784;-43
2022/05/12 09:33:41;;;;;;;9.27;5.00;;;;;;;;;;4966694;28;20182;-43
2022/05/12 09:36:28;;;;;;;9.17;4.70;;;;;;;;;;4962423;28;20718;-42
2022/05/12 09:38:58;;;;;;;9.17;5.10;;;;;;;;;;4961305;28;20812;-43
2022/05/12 09:41:44;;;;;;;7.57;5.13;;;;;;;;;;4966225;28;20171;-43
2022/05/12 09:44:18;;;;;;;7.57;4.33;;;;;;;;;;4960774;28;20617;-43
2022/05/12 09:46:54;;;;;;;6.23;4.20;;;;;;;;;;4959219;28;20197;-42
2022/05/12 09:49:23;;;;;;;11.13;4.57;;;;;;;;;;4960016;28;20205;-42
2022/05/12 09:51:49;;;;;;;8.57;4.60;;;;;;;;;;4964499;28;20170;-42
2022/05/12 09:54:29;;;;;;;8.40;4.83;;;;;;;;;;4960180;28;20713;-41
2022/05/12 09:56:57;;;;;;;9.17;4.27;;;;;;;;;;4957990;28;20617;-42
2022/05/12 09:59:25;;;;;;;10.83;4.60;;;;;;;;;;4963840;28;20185;-42
2022/05/12 10:01:51;;;;;;;9.30;4.40;;;;;;;;;;4960522;28;20178;-44
2022/05/12 10:10:28;;;;;;;7.70;4.03;;;;;;;;;;4963164;28;20185;-41
2022/05/12 10:13:17;;;;;;;8.70;4.07;;;;;;;;;;4966497;28;20954;-42
2022/05/12 10:15:43;;;;;;;5.10;3.37;;;;;;;;;;4951887;28;20471;-42
2022/05/12 10:18:09;;;;;;;7.30;3.37;;;;;;;;;;4961903;28;20170;-42
2022/05/12 10:20:42;;;;;;;8.80;3.40;;;;;;;;;;4965665;28;20190;-42
2022/05/12 10:23:24;;;;;;;5.47;2.97;;;;;;;;;;4962521;28;21119;-42
2022/05/12 10:25:59;;;;;;;7.70;4.00;;;;;;;;;;4963745;28;20182;-42
2022/05/12 10:28:43;;;;;;;8.00;4.00;;;;;;;;;;4966642;28;20241;-42
2022/05/12 10:31:13;;;;;;;9.30;4.00;;;;;;;;;;4961936;28;20454;-42
2022/05/12 10:33:49;;;;;;;7.60;3.90;;;;;;;;;;4963432;28;20182;-41
2022/05/12 10:36:23;;;;;;;7.87;4.40;;;;;;;;;;4966133;28;20571;-41
2022/05/12 10:38:51;;;;;;;7.07;4.50;;;;;;;;;;4962379;28;20290;-42
2022/05/12 10:41:17;;;;;;;7.77;4.40;;;;;;;;;;4960678;28;21011;-41
2022/05/12 10:43:46;;;;;;;6.40;3.80;;;;;;;;;;4963369;28;20178;-42
2022/05/12 10:46:27;;;;;;;7.87;3.57;;;;;;;;;;4962292;28;20175;-42
2022/05/12 10:48:58;;;;;;;5.43;3.30;;;;;;;;;;4963603;28;20228;-41
2022/05/12 10:51:48;;;;;;;7.37;3.50;;;;;;;;;;4964238;28;20193;-42
2022/05/12 10:54:27;;;;;;;9.97;4.00;;;;;;;;;;4965362;28;20207;-42
2022/05/12 10:57:29;;;;;;;9.50;3.90;;;;;;;;;;4959284;28;20213;-42
2022/05/12 11:00:03;;;;;;;6.77;4.13;;;;;;;;;;4863466;29;20181;-42
2022/05/12 11:02:47;;;;;;;9.20;4.43;;;;;;;;;;4949754;28;20194;-41
2022/05/12 11:05:34;;;;;;;6.37;3.70;;;;;;;;;;4961259;28;20613;-40
2022/05/12 11:08:04;;;;;;;8.43;4.00;;;;;;;;;;4958946;28;20591;-42
2022/05/12 11:10:32;;;;;;;8.30;3.33;;;;;;;;;;4962674;28;20460;-42
2022/05/12 11:13:01;;;;;;;7.20;2.90;;;;;;;;;;4961366;28;20177;-42
2022/05/12 11:15:30;;;;;;;5.67;3.30;;;;;;;;;;4963848;28;20250;-42
2022/05/12 11:17:58;;;;;;;7.00;3.13;;;;;;;;;;4960799;28;20204;-41
2022/05/12 11:20:25;;;;;;;7.20;3.13;;;;;;;;;;4963213;28;20178;-42
2022/05/12 11:22:51;;;;;;;5.50;3.20;;;;;;;;;;4963864;28;20262;-41
2022/05/12 11:25:20;;;;;;;9.43;3.30;;;;;;;;;;4958781;28;20174;-42
2022/05/12 11:29:41;;;;;;;11.07;3.30;;;;;;;;;;4960693;28;20204;-42
2022/05/12 11:30:51;;;;;;;8.57;3.90;;;;;;;;;;4959446;28;20193;-42
2022/05/12 11:33:32;;;;;;;7.63;3.67;;;;;;;;;;4961040;28;20213;-40
2022/05/12 11:35:59;;;;;;;7.93;3.60;;;;;;;;;;4956614;28;20190;-41
2022/05/12 11:38:43;;;;;;;13.77;4.20;;;;;;;;;;4965117;28;20174;-42
2022/05/12 11:41:22;;;;;;;5.67;3.70;;;;;;;;;;4963854;28;20501;-41
2022/05/12 11:46:53;;;;;;;8.07;3.63;;;;;;;;;;4960770;28;20303;-42
2022/05/12 11:49:34;;;;;;;8.13;4.27;;;;;;;;;;4962630;28;20177;-42
2022/05/12 11:52:18;;;;;;;8.50;4.20;;;;;;;;;;4958335;28;20285;-42
2022/05/12 11:55:03;;;;;;;10.07;4.70;;;;;;;;;;4957995;28;20461;-41
2022/05/12 11:57:32;;;;;;;8.47;4.27;;;;;;;;;;4959707;28;20182;-42
2022/05/12 11:59:59;;;;;;;9.20;4.07;;;;;;;;;;4956969;28;20174;-42
2022/05/12 12:02:28;;;;;;;10.30;3.97;;;;;;;;;;4954095;28;20267;-42
2022/05/12 12:05:01;;;;;;;7.90;4.07;;;;;;;;;;4957902;28;20178;-41
2022/05/12 12:07:35;;;;;;;7.20;4.27;;;;;;;;;;4957362;28;20988;-42
2022/05/12 12:10:07;;;;;;;8.27;4.00;;;;;;;;;;4955775;28;20229;-42
2022/05/12 12:12:42;;;;;;;8.80;4.90;;;;;;;;;;4959171;28;20233;-42
2022/05/12 12:15:35;;;;;;;9.30;4.17;;;;;;;;;;4959450;28;20275;-42
2022/05/12 12:18:36;;;;;;;7.70;4.43;;;;;;;;;;4948090;28;20186;-41
2022/05/12 12:21:22;;;;;;;7.77;4.17;;;;;;;;;;4878731;29;20426;-42
2022/05/12 12:24:03;;;;;;;6.63;4.10;;;;;;;;;;4953311;28;20276;-42
2022/05/12 12:26:37;;;;;;;6.93;3.83;;;;;;;;;;4959919;28;21081;-41
2022/05/12 12:29:04;;;;;;;6.93;3.77;;;;;;;;;;4958460;28;20174;-40
2022/05/12 12:31:37;;;;;;;5.63;3.77;;;;;;;;;;4958163;28;20181;-42
2022/05/12 12:34:22;;;;;;;7.17;4.00;;;;;;;;;;4958290;28;20285;-42
2022/05/12 12:37:09;;;;;;;7.87;3.80;;;;;;;;;;4954249;28;20900;-42
2022/05/12 12:39:35;;;;;;;6.87;4.00;;;;;;;;;;4960463;28;20185;-42
2022/05/12 12:42:33;;;;;;;9.33;4.40;;;;;;;;;;4956680;28;20174;-42
2022/05/12 12:45:11;;;;;;;9.37;3.90;;;;;;;;;;4940868;28;20292;-42
2022/05/12 12:47:43;;;;;;;8.43;3.80;;;;;;;;;;4953949;28;20730;-42
2022/05/12 12:50:22;;;;;;;8.03;4.00;;;;;;;;;;4949962;28;20166;-42
2022/05/12 12:52:50;;;;;;;11.03;3.80;;;;;;;;;;4937379;28;20185;-43
2022/05/12 12:58:06;;;;;;;7.90;3.83;;;;;;;;;;4943727;28;20213;-43
2022/05/12 13:00:35;;;;;;;7.47;4.13;;;;;;;;;;4942462;28;20190;-42
2022/05/12 13:03:04;;;;;;;7.33;4.20;;;;;;;;;;4946424;28;20193;-42
2022/05/12 13:05:31;;;;;;;8.07;3.40;;;;;;;;;;4942349;28;20205;-43
2022/05/12 13:08:00;;;;;;;8.60;3.70;;;;;;;;;;4945410;28;20210;-42
2022/05/12 13:10:27;;;;;;;9.40;3.57;;;;;;;;;;4945589;28;20192;-42
2022/05/12 13:13:00;;;;;;;5.77;3.60;;;;;;;;;;4948207;28;20973;-45
2022/05/12 13:15:26;;;;;;;5.80;2.83;;;;;;;;;;4939917;28;20179;-43
2022/05/12 13:17:55;;;;;;;7.30;3.30;;;;;;;;;;4938302;28;20210;-43
2022/05/12 13:20:24;;;;;;;4.93;2.97;;;;;;;;;;4939208;28;20184;-42
2022/05/12 13:23:00;;;;;;;8.10;3.10;;;;;;;;;;4943853;28;20266;-43
2022/05/12 13:25:28;;;;;;;6.60;3.23;;;;;;;;;;4944089;28;20183;-43
2022/05/12 13:27:55;;;;;;;7.57;2.77;;;;;;;;;;4941667;28;20209;-43
2022/05/12 13:30:27;;;;;;;4.57;2.70;;;;;;;;;;4940927;28;20186;-43
2022/05/12 13:33:03;;;;;;;6.13;3.13;;;;;;;;;;4944707;28;20183;-43
2022/05/12 13:35:33;;;;;;;6.77;2.60;;;;;;;;;;4942111;28;21093;-43
2022/05/12 13:38:15;;;;;;;5.17;2.40;;;;;;;;;;4940262;28;20561;-43
2022/05/12 13:40:50;;;;;;;6.83;3.17;;;;;;;;;;4940177;28;21410;-43
2022/05/12 13:43:19;;;;;;;5.93;3.03;;;;;;;;;;4943196;28;20219;-42
2022/05/12 13:45:47;;;;;;;4.90;2.57;;;;;;;;;;4941880;28;20177;-43
2022/05/12 13:48:21;;;;;;;8.33;2.97;;;;;;;;;;4937606;28;20216;-43
2022/05/12 13:50:49;;;;;;;6.37;2.77;;;;;;;;;;4940071;28;20208;-43
2022/05/12 13:53:30;;;;;;;5.50;2.90;;;;;;;;;;4943988;28;20288;-43
2022/05/12 13:56:06;;;;;;;5.40;2.90;;;;;;;;;;4939333;28;20286;-43
2022/05/12 13:58:32;;;;;;;6.60;2.87;;;;;;;;;;4942664;28;20190;-43
2022/05/12 14:00:58;;;;;;;7.17;2.70;;;;;;;;;;4946186;28;20181;-43
2022/05/12 14:03:24;;;;;;;7.47;2.90;;;;;;;;;;4937914;28;20952;-42
2022/05/12 14:05:53;;;;;;;6.50;2.83;;;;;;;;;;4940744;28;22932;-43
2022/05/12 14:08:21;;;;;;;7.03;3.20;;;;;;;;;;4941155;28;20516;-41
2022/05/12 14:11:04;;;;;;;7.23;2.60;;;;;;;;;;4939055;28;21543;-42
2022/05/12 14:19:15;;;;;;;4.97;2.30;;;;;;;;;;4940424;28;20274;-43
2022/05/12 14:21:49;;;;;;;7.17;2.80;;;;;;;;;;4934009;28;21041;-43
2022/05/12 14:24:15;;;;;;;6.30;3.13;;;;;;;;;;4935547;28;20176;-42
2022/05/12 14:26:42;;;;;;;5.20;2.80;;;;;;;;;;4936887;28;20204;-42
2022/05/12 14:29:08;;;;;;;7.70;2.80;;;;;;;;;;4939555;28;20173;-43
2022/05/12 14:31:36;;;;;;;6.67;2.77;;;;;;;;;;4940514;28;20437;-42
2022/05/12 14:34:02;;;;;;;6.60;3.27;;;;;;;;;;4937288;28;20187;-43
2022/05/12 14:36:28;;;;;;;3.73;2.50;;;;;;;;;;4941562;28;20250;-42
2022/05/12 14:38:54;;;;;;;5.43;2.60;;;;;;;;;;4941240;28;20180;-41
2022/05/12 14:41:21;;;;;;;5.00;2.67;;;;;;;;;;4935910;28;21182;-42
2022/05/12 14:43:48;;;;;;;7.20;3.13;;;;;;;;;;4940809;28;20193;-42
2022/05/12 14:46:15;;;;;;;4.40;2.73;;;;;;;;;;4940516;28;20184;-43
2022/05/12 14:48:45;;;;;;;6.40;3.00;;;;;;;;;;4940687;28;20452;-42
2022/05/12 14:51:12;;;;;;;4.23;2.70;;;;;;;;;;4936087;28;20418;-43
2022/05/12 14:53:39;;;;;;;5.47;2.97;;;;;;;;;;4936605;28;20189;-43
2022/05/12 14:56:06;;;;;;;6.43;2.97;;;;;;;;;;4933555;28;20267;-44
2022/05/12 14:58:33;;;;;;;9.43;2.80;;;;;;;;;;4937811;28;20217;-43
2022/05/12 15:00:59;;;;;;;7.13;2.97;;;;;;;;;;4937735;28;20197;-43
2022/05/12 15:03:26;;;;;;;5.63;3.03;;;;;;;;;;4937591;28;20815;-44
2022/05/12 15:05:52;;;;;;;4.90;2.80;;;;;;;;;;4934085;28;20190;-44
2022/05/12 15:08:18;;;;;;;7.40;3.27;;;;;;;;;;4939788;28;20219;-43
2022/05/12 15:10:44;;;;;;;8.90;3.20;;;;;;;;;;4940667;28;20208;-44
2022/05/12 15:13:10;;;;;;;5.00;3.07;;;;;;;;;;4939137;28;20180;-44
2022/05/12 15:15:37;;;;;;;6.60;2.90;;;;;;;;;;4942243;28;20229;-44
2022/05/12 15:18:04;;;;;;;5.73;3.00;;;;;;;;;;4955538;28;20890;-44
2022/05/12 15:20:30;;;;;;;8.20;4.03;;;;;;;;;;4956169;28;21368;-44
2022/05/12 15:22:56;;;;;;;6.13;3.00;;;;;;;;;;4957536;28;20351;-43